createdAt,value
2023-01-27T00:00:14.407Z,6.60
2023-01-27T00:02:42.672Z,6.53
2023-01-27T00:05:11.645Z,5.93
2023-01-27T00:07:38.629Z,6.32
2023-01-27T00:10:06.308Z,6.72
2023-01-27T00:12:51.072Z,7.18
2023-01-27T00:15:17.601Z,6.20
2023-01-27T00:17:44.030Z,6.57
2023-01-27T00:20:11.343Z,7.10
2023-01-27T00:22:56.319Z,6.45
2023-01-27T00:25:22.773Z,6.18
2023-01-27T00:27:49.200Z,7.22
2023-01-27T00:30:15.704Z,6.50
2023-01-27T00:33:00.433Z,6.53
2023-01-27T00:35:27.515Z,6.32
2023-01-27T00:37:54.303Z,6.80
2023-01-27T00:40:20.840Z,6.93
2023-01-27T00:42:47.271Z,8.15
2023-01-27T00:45:32.382Z,8.32
2023-01-27T00:47:58.811Z,9.38
2023-01-27T00:50:25.250Z,8.07
2023-01-27T00:52:52.788Z,7.43
2023-01-27T00:55:19.448Z,7.47
2023-01-27T00:57:45.938Z,7.10
2023-01-27T01:00:14.146Z,7.78
2023-01-27T01:02:40.873Z,7.47
2023-01-27T01:05:07.700Z,8.38
2023-01-27T01:07:34.976Z,8.45
2023-01-27T01:10:01.425Z,8.27
2023-01-27T01:12:27.897Z,9.57
2023-01-27T01:14:54.309Z,8.73
2023-01-27T01:17:21.668Z,8.18
2023-01-27T01:19:48.313Z,8.73
2023-01-27T01:22:14.723Z,9.55
2023-01-27T01:24:41.114Z,10.38
2023-01-27T01:27:07.500Z,10.75
2023-01-27T01:29:33.922Z,9.90
2023-01-27T01:32:00.481Z,9.50
2023-01-27T01:34:26.954Z,9.35
2023-01-27T01:36:53.367Z,9.82
2023-01-27T01:39:19.757Z,9.45
2023-01-27T01:41:46.936Z,8.80
2023-01-27T01:44:30.602Z,6.43
2023-01-27T01:47:00.033Z,7.38
2023-01-27T01:49:36.506Z,8.30
2023-01-27T01:52:09.193Z,7.93
2023-01-27T01:54:43.307Z,7.25
2023-01-27T01:57:16.389Z,7.35
2023-01-27T01:59:48.617Z,8.05
2023-01-27T02:02:19.747Z,7.85
2023-01-27T02:04:56.378Z,7.25
2023-01-27T02:07:37.336Z,7.22
2023-01-27T02:10:04.480Z,6.88
2023-01-27T02:12:35.528Z,6.80
2023-01-27T02:15:02.072Z,7.70
2023-01-27T02:17:28.671Z,7.18
2023-01-27T02:20:28.663Z,8.40
2023-01-27T02:23:14.017Z,9.02
2023-01-27T02:25:44.696Z,6.97
2023-01-27T02:28:11.092Z,7.28
2023-01-27T02:30:37.618Z,8.38
2023-01-27T02:33:11.552Z,8.13
2023-01-27T02:35:44.086Z,8.02
2023-01-27T02:38:13.051Z,7.97
2023-01-27T02:40:40.538Z,7.78
2023-01-27T02:43:07.094Z,7.72
2023-01-27T02:45:33.559Z,8.10
2023-01-27T02:48:01.686Z,7.53
2023-01-27T02:50:28.652Z,8.32
2023-01-27T02:52:55.139Z,8.57
2023-01-27T02:55:22.260Z,7.50
2023-01-27T02:57:50.940Z,8.52
2023-01-27T03:00:31.103Z,8.48
2023-01-27T03:02:57.639Z,8.00
2023-01-27T03:05:24.674Z,8.38
2023-01-27T03:07:51.255Z,7.43
2023-01-27T03:10:19.361Z,7.90
2023-01-27T03:12:45.847Z,8.20
2023-01-27T03:15:32.000Z,8.70
2023-01-27T03:18:13.375Z,8.05
2023-01-27T03:20:41.165Z,8.18
2023-01-27T03:23:08.048Z,9.93
2023-01-27T03:25:35.863Z,8.98
2023-01-27T03:28:02.781Z,9.27
2023-01-27T03:30:52.464Z,7.93
2023-01-27T03:33:24.393Z,9.45
2023-01-27T03:36:12.270Z,9.18
2023-01-27T03:39:04.755Z,10.00
2023-01-27T03:41:50.010Z,8.70
2023-01-27T03:44:35.224Z,9.50
2023-01-27T03:47:01.932Z,8.98
2023-01-27T03:49:28.591Z,8.55
2023-01-27T03:51:56.118Z,10.10
2023-01-27T03:54:22.495Z,10.68
2023-01-27T03:56:49.003Z,8.90
2023-01-27T03:59:17.070Z,9.13
2023-01-27T04:01:44.101Z,9.48
2023-01-27T04:04:29.958Z,9.88
2023-01-27T04:06:58.791Z,8.10
2023-01-27T04:09:36.139Z,8.20
2023-01-27T04:12:05.323Z,8.65
2023-01-27T04:14:43.827Z,9.13
2023-01-27T04:17:13.109Z,10.25
2023-01-27T04:19:39.782Z,10.73
2023-01-27T04:22:06.913Z,10.10
2023-01-27T04:24:33.368Z,9.77
2023-01-27T04:27:05.468Z,12.48
2023-01-27T04:29:36.097Z,10.25
2023-01-27T04:32:05.002Z,10.45
2023-01-27T04:34:32.084Z,11.07
2023-01-27T04:36:59.538Z,10.60
2023-01-27T04:39:26.453Z,10.20
2023-01-27T04:41:52.942Z,11.20
2023-01-27T04:44:20.286Z,10.82
2023-01-27T04:46:47.240Z,11.07
2023-01-27T04:49:13.659Z,11.43
2023-01-27T04:51:40.115Z,11.52
2023-01-27T04:54:06.620Z,10.73
2023-01-27T04:56:35.956Z,11.15
2023-01-27T04:59:08.207Z,11.60
2023-01-27T05:01:34.671Z,10.35
2023-01-27T05:04:01.141Z,11.40
2023-01-27T05:06:27.821Z,12.15
2023-01-27T05:08:54.319Z,11.43
2023-01-27T05:11:21.183Z,12.10
2023-01-27T05:13:47.981Z,11.70
2023-01-27T05:16:27.507Z,12.32
2023-01-27T05:18:54.182Z,13.63
2023-01-27T05:21:23.354Z,11.40
2023-01-27T05:23:50.221Z,11.43
2023-01-27T05:26:22.485Z,10.23
2023-01-27T05:28:50.661Z,10.48
2023-01-27T05:31:29.084Z,10.25
2023-01-27T05:33:57.856Z,9.55
2023-01-27T05:36:26.012Z,11.02
2023-01-27T05:38:53.980Z,10.82
2023-01-27T05:41:20.810Z,11.95
2023-01-27T05:43:52.016Z,11.02
2023-01-27T05:46:21.525Z,10.70
2023-01-27T05:48:50.621Z,12.45
2023-01-27T05:51:19.422Z,11.85
2023-01-27T05:53:46.300Z,11.95
2023-01-27T05:56:18.744Z,11.77
2023-01-27T05:58:45.488Z,11.85
2023-01-27T06:01:17.850Z,13.35
2023-01-27T06:03:45.068Z,11.07
2023-01-27T06:06:13.462Z,12.55
2023-01-27T06:08:40.258Z,12.55
2023-01-27T06:11:07.139Z,10.57
2023-01-27T06:13:38.537Z,11.27
2023-01-27T06:18:33.104Z,12.35
2023-01-27T06:21:01.124Z,11.32
2023-01-27T06:23:28.270Z,12.00
2023-01-27T06:25:56.643Z,12.00
2023-01-27T06:28:29.152Z,16.73
2023-01-27T06:30:57.266Z,14.35
2023-01-27T06:33:23.807Z,13.98
2023-01-27T06:35:50.264Z,13.32
2023-01-27T06:38:16.854Z,12.05
2023-01-27T06:40:44.087Z,12.75
2023-01-27T06:43:14.224Z,13.85
2023-01-27T06:45:41.114Z,12.05
2023-01-27T06:48:11.200Z,12.43
2023-01-27T06:50:37.660Z,12.80
2023-01-27T06:53:06.173Z,11.98
2023-01-27T06:55:33.130Z,13.02
2023-01-27T06:58:01.324Z,13.32
2023-01-27T07:00:27.778Z,12.23
2023-01-27T07:02:57.570Z,13.57
2023-01-27T07:05:24.632Z,14.75
2023-01-27T07:07:51.114Z,14.38
2023-01-27T07:10:17.914Z,12.45
2023-01-27T07:12:44.358Z,12.90
2023-01-27T07:15:11.812Z,13.02
2023-01-27T07:17:38.731Z,11.65
2023-01-27T07:20:07.964Z,11.73
2023-01-27T07:22:34.401Z,10.80
2023-01-27T07:25:01.589Z,9.27
2023-01-27T07:27:28.194Z,10.70
2023-01-27T07:29:54.611Z,12.80
2023-01-27T07:32:21.431Z,11.55
2023-01-27T07:34:47.831Z,11.45
2023-01-27T07:37:14.515Z,11.98
2023-01-27T07:39:40.940Z,11.88
2023-01-27T07:42:08.572Z,10.10
2023-01-27T07:44:36.327Z,9.75
2023-01-27T07:47:02.916Z,9.68
2023-01-27T07:49:29.549Z,7.88
2023-01-27T07:51:56.004Z,9.88
2023-01-27T07:54:22.709Z,10.57
2023-01-27T07:56:49.125Z,10.05
2023-01-27T07:59:15.571Z,11.35
2023-01-27T08:01:43.229Z,10.65
2023-01-27T08:04:09.899Z,10.65
2023-01-27T08:06:39.452Z,10.30
2023-01-27T08:09:06.449Z,9.30
2023-01-27T08:11:33.360Z,10.13
2023-01-27T08:13:59.777Z,10.55
2023-01-27T08:16:26.209Z,10.32
2023-01-27T08:18:53.899Z,9.38
2023-01-27T08:21:21.194Z,11.50
2023-01-27T08:23:47.688Z,12.77
2023-01-27T08:26:14.293Z,12.35
2023-01-27T08:28:40.864Z,11.43
2023-01-27T08:31:11.252Z,10.15
2023-01-27T08:33:37.834Z,12.13
2023-01-27T08:36:17.850Z,10.20
2023-01-27T08:38:45.649Z,9.98
2023-01-27T08:41:17.813Z,11.77
2023-01-27T08:43:44.236Z,11.95
2023-01-27T08:46:11.699Z,10.88
2023-01-27T08:48:38.619Z,11.18
2023-01-27T08:51:06.595Z,11.45
2023-01-27T08:53:33.888Z,11.63
2023-01-27T08:56:07.249Z,10.48
2023-01-27T08:58:34.588Z,10.38
2023-01-27T09:01:02.439Z,11.57
2023-01-27T09:03:33.355Z,12.30
2023-01-27T09:06:00.572Z,10.40
2023-01-27T09:08:27.901Z,16.73
2023-01-27T09:10:54.432Z,17.65
2023-01-27T09:13:22.271Z,11.60
2023-01-27T09:15:52.742Z,12.90
2023-01-27T09:18:19.953Z,11.73
2023-01-27T09:20:46.640Z,11.85
2023-01-27T09:23:13.121Z,11.52
2023-01-27T09:25:39.679Z,11.10
2023-01-27T09:28:06.174Z,10.77
2023-01-27T09:30:32.722Z,11.10
2023-01-27T09:33:00.365Z,12.77
2023-01-27T09:35:36.290Z,13.20
2023-01-27T09:38:04.552Z,11.80
2023-01-27T09:40:48.952Z,10.77
2023-01-27T09:43:39.248Z,10.63
2023-01-27T09:46:27.338Z,11.27
2023-01-27T09:49:12.439Z,10.20
2023-01-27T09:52:04.394Z,10.70
2023-01-27T09:55:09.536Z,11.13
2023-01-27T09:57:57.061Z,9.43
2023-01-27T10:00:34.010Z,9.40
2023-01-27T10:03:15.706Z,7.00
2023-01-27T10:06:19.938Z,6.22
2023-01-27T10:09:07.764Z,6.63
2023-01-27T10:11:40.770Z,7.07
2023-01-27T10:14:18.598Z,7.97
2023-01-27T10:17:00.670Z,7.63
2023-01-27T10:19:46.161Z,7.43
2023-01-27T10:22:24.476Z,7.13
2023-01-27T10:25:30.293Z,8.35
2023-01-27T10:27:58.957Z,13.85
2023-01-27T10:30:35.409Z,17.35
2023-01-27T10:33:18.895Z,13.73
2023-01-27T10:35:52.654Z,12.18
2023-01-27T10:38:30.103Z,9.05
2023-01-27T10:41:02.681Z,9.02
2023-01-27T10:43:42.599Z,10.23
2023-01-27T10:46:36.228Z,9.65
2023-01-27T10:49:46.672Z,11.35
2023-01-27T10:52:18.204Z,11.93
2023-01-27T10:54:52.769Z,12.10
2023-01-27T10:57:27.465Z,11.65
2023-01-27T11:00:41.870Z,17.83
2023-01-27T11:03:10.987Z,11.50
2023-01-27T11:05:41.396Z,11.65
2023-01-27T11:08:21.193Z,9.43
2023-01-27T11:11:11.501Z,8.80
2023-01-27T11:13:38.916Z,9.25
2023-01-27T11:16:09.475Z,10.13
2023-01-27T11:18:38.631Z,10.63
2023-01-27T11:21:09.621Z,10.82
2023-01-27T11:23:46.665Z,9.27
2023-01-27T11:26:27.073Z,11.10
2023-01-27T11:29:09.549Z,9.02
2023-01-27T11:31:50.954Z,9.05
2023-01-27T11:34:35.766Z,9.93
2023-01-27T11:37:13.323Z,8.95
2023-01-27T11:39:39.768Z,9.60
2023-01-27T11:42:06.183Z,8.45
2023-01-27T11:44:34.410Z,10.13
2023-01-27T11:47:03.920Z,10.25
2023-01-27T11:49:36.859Z,10.07
2023-01-27T11:52:15.111Z,10.35
2023-01-27T11:55:05.254Z,10.77
2023-01-27T11:57:31.815Z,9.23
2023-01-27T12:00:07.608Z,9.82
2023-01-27T12:02:44.944Z,10.25
2023-01-27T12:05:17.791Z,11.25
2023-01-27T12:08:01.793Z,9.32
2023-01-27T12:10:39.038Z,10.10
2023-01-27T12:13:19.516Z,9.20
2023-01-27T12:15:58.975Z,8.93
2023-01-27T12:18:25.414Z,9.25
2023-01-27T12:21:04.516Z,9.55
2023-01-27T12:23:39.319Z,11.35
2023-01-27T12:26:11.820Z,9.55
2023-01-27T12:28:41.384Z,9.02
2023-01-27T12:31:20.605Z,11.98
2023-01-27T12:33:58.522Z,10.23
2023-01-27T12:36:25.357Z,15.15
2023-01-27T12:38:54.116Z,9.65
2023-01-27T12:41:42.461Z,12.32
2023-01-27T12:44:16.853Z,10.88
2023-01-27T12:47:02.674Z,9.00
2023-01-27T12:49:34.899Z,9.80
2023-01-27T12:52:04.873Z,9.20
2023-01-27T12:54:32.825Z,11.75
2023-01-27T12:57:05.668Z,10.35
2023-01-27T12:59:33.292Z,11.02
2023-01-27T13:02:17.877Z,12.32
2023-01-27T13:05:00.190Z,20.80
2023-01-27T13:07:34.764Z,20.60
2023-01-27T13:10:04.469Z,14.88
2023-01-27T13:12:47.502Z,11.02
2023-01-27T13:15:19.381Z,11.65
2023-01-27T13:17:50.844Z,10.45
2023-01-27T13:23:14.672Z,11.30
2023-01-27T13:25:50.892Z,10.25
2023-01-27T13:28:23.990Z,9.65
2023-01-27T13:30:56.402Z,11.40
2023-01-27T13:33:47.948Z,10.93
2023-01-27T13:36:33.141Z,12.18
2023-01-27T13:39:18.395Z,12.40
2023-01-27T13:41:56.865Z,10.10
2023-01-27T13:44:36.817Z,11.25
2023-01-27T13:47:11.658Z,10.38
2023-01-27T13:49:44.325Z,11.45
2023-01-27T13:52:11.232Z,14.50
2023-01-27T13:54:37.734Z,13.52
2023-01-27T13:57:22.888Z,12.40
2023-01-27T14:00:19.578Z,11.95
2023-01-27T14:03:13.930Z,11.45
2023-01-27T14:05:53.191Z,10.82
2023-01-27T14:08:35.843Z,12.15
2023-01-27T14:11:27.220Z,13.88
2023-01-27T14:14:09.224Z,10.98
2023-01-27T14:16:50.973Z,11.70
2023-01-27T14:19:35.177Z,13.25
2023-01-27T14:22:20.309Z,11.77
2023-01-27T14:25:00.007Z,11.18
2023-01-27T14:27:34.881Z,14.65
2023-01-27T14:30:27.386Z,11.57
2023-01-27T14:33:12.180Z,11.55
2023-01-27T14:35:38.540Z,12.63
2023-01-27T14:38:11.359Z,14.90
2023-01-27T14:41:20.137Z,14.60
2023-01-27T14:44:01.824Z,14.00
2023-01-27T14:46:50.226Z,13.32
2023-01-27T14:49:54.388Z,13.70
2023-01-27T14:52:37.173Z,13.93
2023-01-27T14:55:21.899Z,14.77
2023-01-27T14:57:56.683Z,11.07
2023-01-27T15:00:54.039Z,12.98
2023-01-27T15:03:24.403Z,11.90
2023-01-27T15:06:01.857Z,12.93
2023-01-27T15:08:52.740Z,12.95
2023-01-27T15:11:43.928Z,14.38
2023-01-27T15:14:48.897Z,15.25
2023-01-27T15:17:33.441Z,12.63
2023-01-27T15:20:18.630Z,14.15
2023-01-27T15:22:53.429Z,14.68
2023-01-27T15:25:39.952Z,15.52
2023-01-27T15:28:13.433Z,15.85
2023-01-27T15:30:41.410Z,16.05
2023-01-27T15:33:48.674Z,17.63
2023-01-27T15:36:32.603Z,16.23
2023-01-27T15:39:11.317Z,19.05
2023-01-27T15:41:51.186Z,15.25
2023-01-27T15:44:32.359Z,14.98
2023-01-27T15:47:26.173Z,15.50
2023-01-27T15:50:33.942Z,14.90
2023-01-27T15:53:04.348Z,14.15
2023-01-27T15:55:33.555Z,15.43
2023-01-27T15:58:06.165Z,16.13
2023-01-27T16:00:38.665Z,16.08
2023-01-27T16:03:17.230Z,16.67
2023-01-27T16:05:52.350Z,15.57
2023-01-27T16:08:20.332Z,17.02
2023-01-27T16:10:46.843Z,18.60
2023-01-27T16:13:29.964Z,18.00
2023-01-27T16:16:18.168Z,18.58
2023-01-27T16:19:04.705Z,18.05
2023-01-27T16:21:55.045Z,18.25
2023-01-27T16:24:32.981Z,16.88
2023-01-27T16:27:14.704Z,19.52
2023-01-27T16:30:05.799Z,20.75
2023-01-27T16:32:42.548Z,18.13
2023-01-27T16:35:18.482Z,17.73
2023-01-27T16:38:26.685Z,17.60
2023-01-27T16:40:59.529Z,17.05
2023-01-27T16:43:31.801Z,18.02
2023-01-27T16:46:01.626Z,16.67
2023-01-27T16:48:46.288Z,16.92
2023-01-27T16:51:18.500Z,17.02
2023-01-27T16:53:47.753Z,17.35
2023-01-27T16:56:27.523Z,23.27
2023-01-27T16:59:07.372Z,16.60
2023-01-27T17:01:41.763Z,17.80
2023-01-27T17:04:19.990Z,15.15
2023-01-27T17:06:48.912Z,16.52
2023-01-27T17:09:24.527Z,17.20
2023-01-27T17:11:51.103Z,18.25
2023-01-27T17:14:29.905Z,16.30
2023-01-27T17:17:01.231Z,17.10
2023-01-27T17:19:31.236Z,17.23
2023-01-27T17:22:10.039Z,18.52
2023-01-27T17:24:40.235Z,18.70
2023-01-27T17:27:24.213Z,18.83
2023-01-27T17:29:55.313Z,22.58
2023-01-27T17:32:31.269Z,24.73
2023-01-27T17:35:00.367Z,20.33
2023-01-27T17:37:29.416Z,14.18
2023-01-27T17:39:58.587Z,16.92
2023-01-27T17:42:34.152Z,16.70
2023-01-27T17:45:22.651Z,16.27
2023-01-27T17:47:49.762Z,16.13
2023-01-27T17:50:25.510Z,15.98
2023-01-27T17:52:56.216Z,14.98
2023-01-27T17:55:24.782Z,13.15
2023-01-27T17:58:04.457Z,15.50
2023-01-27T18:00:37.998Z,14.50
2023-01-27T18:03:16.631Z,15.20
2023-01-27T18:05:45.179Z,14.57
2023-01-27T18:08:11.703Z,15.05
2023-01-27T18:10:44.012Z,15.52
2023-01-27T18:13:37.068Z,15.43
2023-01-27T18:16:15.933Z,16.30
2023-01-27T18:18:43.155Z,15.15
2023-01-27T18:21:09.691Z,15.32
2023-01-27T18:23:46.640Z,15.68
2023-01-27T18:26:13.007Z,15.32
2023-01-27T18:28:40.983Z,15.50
2023-01-27T18:31:18.583Z,17.02
2023-01-27T18:33:46.387Z,17.02
2023-01-27T18:36:22.115Z,15.25
2023-01-27T18:38:50.552Z,15.18
2023-01-27T18:41:27.716Z,17.15
2023-01-27T18:43:55.239Z,17.33
2023-01-27T18:46:21.987Z,16.98
2023-01-27T18:48:48.544Z,16.73
2023-01-27T18:51:16.411Z,15.63
2023-01-27T18:53:43.148Z,13.80
2023-01-27T18:56:09.713Z,14.50
2023-01-27T18:58:36.178Z,14.88
2023-01-27T19:01:03.560Z,13.90
2023-01-27T19:03:34.399Z,14.60
2023-01-27T19:06:01.275Z,15.43
2023-01-27T19:08:27.882Z,14.02
2023-01-27T19:10:54.407Z,14.50
2023-01-27T19:13:20.871Z,16.13
2023-01-27T19:15:52.655Z,17.05
2023-01-27T19:18:26.184Z,17.25
2023-01-27T19:20:53.243Z,15.38
2023-01-27T19:23:21.032Z,16.05
2023-01-27T19:25:50.055Z,14.40
2023-01-27T19:28:23.879Z,13.27
2023-01-27T19:30:50.544Z,15.02
2023-01-27T19:33:24.129Z,13.48
2023-01-27T19:36:10.542Z,14.20
2023-01-27T19:38:36.975Z,14.20
2023-01-27T19:41:03.379Z,13.38
2023-01-27T19:43:29.774Z,14.13
2023-01-27T19:45:56.242Z,14.88
2023-01-27T19:48:24.240Z,13.85
2023-01-27T19:50:52.121Z,14.23
2023-01-27T19:53:20.041Z,15.65
2023-01-27T19:55:47.252Z,13.25
2023-01-27T19:58:25.252Z,13.30
2023-01-27T20:00:52.988Z,13.75
2023-01-27T20:03:19.542Z,15.50
2023-01-27T20:05:46.237Z,15.32
2023-01-27T20:08:15.714Z,15.45
2023-01-27T20:10:42.495Z,14.70
2023-01-27T20:13:17.809Z,14.88
2023-01-27T20:15:45.576Z,14.05
2023-01-27T20:18:16.726Z,13.68
2023-01-27T20:20:44.267Z,13.23
2023-01-27T20:23:17.404Z,14.93
2023-01-27T20:25:43.915Z,13.80
2023-01-27T20:28:12.048Z,14.95
2023-01-27T20:30:38.844Z,15.10
2023-01-27T20:33:05.710Z,15.10
2023-01-27T20:35:32.329Z,14.02
2023-01-27T20:37:58.953Z,15.38
2023-01-27T20:40:28.171Z,14.52
2023-01-27T20:42:54.682Z,15.60
2023-01-27T20:45:22.116Z,14.55
2023-01-27T20:47:50.835Z,13.02
2023-01-27T20:50:18.139Z,15.32
2023-01-27T20:52:45.192Z,15.35
2023-01-27T20:55:13.400Z,14.80
2023-01-27T20:57:40.207Z,16.98
2023-01-27T21:00:07.615Z,14.85
2023-01-27T21:02:34.537Z,15.55
2023-01-27T21:05:00.987Z,14.48
2023-01-27T21:07:27.549Z,15.10
2023-01-27T21:09:54.978Z,14.95
2023-01-27T21:12:21.485Z,15.48
2023-01-27T21:14:48.048Z,15.55
2023-01-27T21:17:14.629Z,15.00
2023-01-27T21:19:41.111Z,16.30
2023-01-27T21:22:07.553Z,16.73
2023-01-27T21:24:35.391Z,17.25
2023-01-27T21:27:01.810Z,16.33
2023-01-27T21:29:28.304Z,15.38
2023-01-27T21:31:54.787Z,17.48
2023-01-27T21:34:21.698Z,17.73
2023-01-27T21:36:48.335Z,16.77
2023-01-27T21:39:14.881Z,15.07
2023-01-27T21:41:53.532Z,15.88
2023-01-27T21:44:47.435Z,16.45
2023-01-27T21:47:18.832Z,17.52
2023-01-27T21:52:39.498Z,15.38
2023-01-27T21:55:08.494Z,14.90
2023-01-27T21:57:35.035Z,15.82
2023-01-27T22:00:01.580Z,15.52
2023-01-27T22:02:38.920Z,16.02
2023-01-27T22:05:05.870Z,16.60
2023-01-27T22:07:37.992Z,15.45
2023-01-27T22:10:10.733Z,16.33
2023-01-27T22:12:37.143Z,15.88
2023-01-27T22:15:03.900Z,16.42
2023-01-27T22:17:30.358Z,17.10
2023-01-27T22:19:56.743Z,15.88
2023-01-27T22:22:23.169Z,14.80
2023-01-27T22:24:49.559Z,16.13
2023-01-27T22:27:15.979Z,15.00
2023-01-27T22:29:42.411Z,18.83
2023-01-27T22:32:08.876Z,16.60
2023-01-27T22:34:35.345Z,16.60
2023-01-27T22:37:01.856Z,15.65
2023-01-27T22:39:28.443Z,15.50
2023-01-27T22:41:54.862Z,15.45
2023-01-27T22:44:21.301Z,17.75
2023-01-27T22:46:49.860Z,15.73
2023-01-27T22:49:16.270Z,16.00
2023-01-27T22:51:42.911Z,14.82
2023-01-27T22:54:10.328Z,14.57
2023-01-27T22:56:36.808Z,16.15
2023-01-27T22:59:03.954Z,16.52
2023-01-27T23:01:30.487Z,15.77
2023-01-27T23:03:56.888Z,16.25
2023-01-27T23:06:23.339Z,15.65
2023-01-27T23:08:49.736Z,14.82
2023-01-27T23:11:16.298Z,16.40
2023-01-27T23:13:42.778Z,17.30
2023-01-27T23:16:10.045Z,17.38
2023-01-27T23:18:36.722Z,17.13
2023-01-27T23:21:06.358Z,15.38
2023-01-27T23:23:33.923Z,15.73
2023-01-27T23:26:00.368Z,15.93
2023-01-27T23:28:26.916Z,15.40
2023-01-27T23:30:53.826Z,15.77
2023-01-27T23:33:20.747Z,16.35
2023-01-27T23:35:47.699Z,15.05
2023-01-27T23:38:31.455Z,14.93
2023-01-27T23:41:03.567Z,15.02
2023-01-27T23:43:31.033Z,15.18
2023-01-27T23:45:58.051Z,14.35
2023-01-27T23:48:24.738Z,15.65
2023-01-27T23:50:51.142Z,13.35
2023-01-27T23:53:17.580Z,13.95
2023-01-27T23:55:44.258Z,13.18
2023-01-27T23:58:10.704Z,13.38
